createdAt,value
2023-03-08T00:01:27.435Z,55.51
2023-03-08T00:04:29.458Z,55.81
2023-03-08T00:07:31.942Z,56.22
2023-03-08T00:10:33.962Z,55.49
2023-03-08T00:13:36.088Z,55.82
2023-03-08T00:16:38.215Z,55.68
2023-03-08T00:19:40.501Z,55.83
2023-03-08T00:22:43.354Z,55.62
2023-03-08T00:25:45.372Z,56.03
2023-03-08T00:28:47.602Z,56.29
2023-03-08T00:31:49.716Z,56.23
2023-03-08T00:34:51.958Z,55.42
2023-03-08T00:37:53.921Z,55.65
2023-03-08T00:40:57.802Z,55.26
2023-03-08T00:43:59.868Z,55.70
2023-03-08T00:47:03.354Z,55.92
2023-03-08T00:50:06.146Z,55.48
2023-03-08T00:53:08.541Z,55.46
2023-03-08T00:56:11.535Z,55.07
2023-03-08T00:59:13.493Z,55.11
2023-03-08T01:02:15.525Z,55.37
2023-03-08T01:05:17.779Z,55.49
2023-03-08T01:08:21.452Z,55.12
2023-03-08T01:11:27.090Z,55.76
2023-03-08T01:14:30.530Z,56.67
2023-03-08T01:17:33.038Z,55.88
2023-03-08T01:20:35.591Z,56.34
2023-03-08T01:23:38.344Z,55.71
2023-03-08T01:26:41.411Z,55.63
2023-03-08T01:29:44.274Z,56.20
2023-03-08T01:32:46.510Z,56.02
2023-03-08T01:35:48.636Z,54.95
2023-03-08T01:38:51.355Z,56.35
2023-03-08T01:41:53.711Z,56.02
2023-03-08T01:44:59.259Z,56.04
2023-03-08T01:48:03.791Z,56.80
2023-03-08T01:51:29.151Z,56.38
2023-03-08T01:54:39.527Z,57.21
2023-03-08T01:57:49.776Z,56.87
2023-03-08T02:00:51.800Z,57.73
2023-03-08T02:03:54.033Z,57.97
2023-03-08T02:06:56.647Z,57.50
2023-03-08T02:10:00.289Z,56.88
2023-03-08T02:13:04.753Z,56.72
2023-03-08T02:16:09.998Z,56.26
2023-03-08T02:19:26.684Z,56.36
2023-03-08T02:22:28.901Z,57.24
2023-03-08T02:25:31.119Z,56.20
2023-03-08T02:28:33.622Z,56.97
2023-03-08T02:31:35.533Z,56.90
2023-03-08T02:34:39.527Z,56.85
2023-03-08T02:37:41.594Z,58.51
2023-03-08T02:40:43.612Z,58.15
2023-03-08T02:43:45.569Z,58.57
2023-03-08T02:46:47.649Z,58.31
2023-03-08T02:49:49.883Z,58.39
2023-03-08T02:52:52.024Z,58.98
2023-03-08T02:55:54.083Z,58.79
2023-03-08T02:58:56.125Z,58.30
2023-03-08T03:01:59.770Z,57.70
2023-03-08T03:05:06.179Z,58.08
2023-03-08T03:08:09.104Z,57.21
2023-03-08T03:11:22.875Z,58.24
2023-03-08T03:14:28.531Z,58.17
2023-03-08T03:17:31.907Z,58.40
2023-03-08T03:20:34.670Z,58.46
2023-03-08T03:23:36.951Z,57.77
2023-03-08T03:26:39.732Z,58.87
2023-03-08T03:29:41.954Z,58.30
2023-03-08T03:32:48.692Z,58.32
2023-03-08T03:35:55.623Z,58.72
2023-03-08T03:38:58.731Z,58.17
2023-03-08T03:42:01.459Z,58.07
2023-03-08T03:45:04.614Z,58.80
2023-03-08T03:48:07.016Z,58.01
2023-03-08T03:51:18.696Z,57.14
2023-03-08T03:54:25.079Z,57.33
2023-03-08T03:57:28.301Z,57.14
2023-03-08T04:00:30.703Z,57.89
2023-03-08T04:03:56.289Z,57.95
2023-03-08T04:06:59.293Z,57.57
2023-03-08T04:10:06.632Z,57.58
2023-03-08T04:13:13.443Z,57.93
2023-03-08T04:16:22.996Z,58.48
2023-03-08T04:19:25.355Z,58.24
2023-03-08T04:22:31.023Z,57.94
2023-03-08T04:25:41.465Z,57.96
2023-03-08T04:28:45.953Z,57.59
2023-03-08T04:31:48.333Z,57.79
2023-03-08T04:34:53.696Z,57.74
2023-03-08T04:37:58.795Z,56.69
2023-03-08T04:41:10.414Z,56.44
2023-03-08T04:44:41.822Z,56.62
2023-03-08T04:47:45.318Z,56.96
2023-03-08T04:51:00.425Z,57.90
2023-03-08T04:54:05.166Z,61.09
2023-03-08T04:57:09.671Z,66.49
2023-03-08T05:00:13.929Z,71.63
2023-03-08T05:03:17.999Z,79.30
2023-03-08T05:06:22.430Z,84.94
2023-03-08T05:09:25.091Z,80.50
2023-03-08T05:12:31.157Z,79.58
2023-03-08T05:15:35.555Z,81.19
2023-03-08T05:18:38.211Z,85.21
2023-03-08T05:21:41.745Z,81.37
2023-03-08T05:24:46.465Z,84.20
2023-03-08T05:27:49.367Z,84.81
2023-03-08T05:31:33.756Z,86.14
2023-03-08T05:34:39.491Z,85.27
2023-03-08T05:37:44.673Z,84.51
2023-03-08T05:40:47.627Z,85.83
2023-03-08T05:43:50.776Z,85.76
2023-03-08T05:46:53.847Z,86.31
2023-03-08T05:49:57.307Z,86.43
2023-03-08T05:52:59.546Z,87.80
2023-03-08T05:56:16.595Z,85.92
2023-03-08T05:59:26.787Z,82.83
2023-03-08T06:02:32.658Z,81.69
2023-03-08T06:05:35.369Z,80.68
2023-03-08T06:08:38.045Z,80.72
2023-03-08T06:11:41.768Z,80.62
2023-03-08T06:14:44.865Z,80.31
2023-03-08T06:17:48.810Z,78.31
2023-03-08T06:21:02.322Z,75.97
2023-03-08T06:24:07.039Z,74.15
2023-03-08T06:27:09.327Z,72.28
2023-03-08T06:30:14.375Z,74.12
2023-03-08T06:33:20.949Z,72.62
2023-03-08T06:36:23.627Z,72.56
2023-03-08T06:39:27.109Z,71.44
2023-03-08T06:42:40.773Z,70.65
2023-03-08T06:45:43.769Z,71.18
2023-03-08T06:48:48.685Z,70.48
2023-03-08T06:51:51.780Z,71.29
2023-03-08T06:54:54.016Z,73.55
2023-03-08T06:57:56.111Z,74.07
2023-03-08T07:01:00.198Z,73.78
2023-03-08T07:04:03.366Z,64.58
2023-03-08T07:07:07.766Z,59.61
2023-03-08T07:10:11.421Z,56.97
2023-03-08T07:13:13.448Z,56.70
2023-03-08T07:16:15.525Z,57.77
2023-03-08T07:19:17.580Z,58.04
2023-03-08T07:22:19.648Z,61.66
2023-03-08T07:25:22.328Z,65.61
2023-03-08T07:28:24.631Z,67.66
2023-03-08T07:31:29.076Z,69.64
2023-03-08T07:34:31.046Z,69.28
2023-03-08T07:37:33.562Z,70.26
2023-03-08T07:40:36.647Z,71.74
2023-03-08T07:43:38.831Z,72.92
2023-03-08T07:46:48.986Z,72.96
2023-03-08T07:49:51.196Z,72.95
2023-03-08T07:52:53.226Z,73.29
2023-03-08T07:55:57.126Z,73.86
2023-03-08T07:58:59.387Z,72.80
2023-03-08T08:02:01.393Z,72.39
2023-03-08T08:05:04.852Z,71.55
2023-03-08T08:08:06.852Z,72.25
2023-03-08T08:11:17.089Z,72.76
2023-03-08T08:14:19.187Z,71.54
2023-03-08T08:17:22.258Z,71.19
2023-03-08T08:20:25.657Z,70.21
2023-03-08T08:23:28.473Z,70.26
2023-03-08T08:26:30.514Z,68.79
2023-03-08T08:29:33.062Z,68.82
2023-03-08T08:32:35.673Z,68.83
2023-03-08T08:35:43.307Z,68.75
2023-03-08T08:38:46.976Z,67.20
2023-03-08T08:41:50.275Z,67.24
2023-03-08T08:44:56.122Z,67.50
2023-03-08T08:47:58.102Z,66.42
2023-03-08T08:51:01.003Z,66.21
2023-03-08T08:54:03.484Z,65.68
2023-03-08T08:57:06.888Z,65.23
2023-03-08T09:00:10.221Z,64.58
2023-03-08T09:03:14.139Z,64.43
2023-03-08T09:06:19.896Z,64.65
2023-03-08T09:09:21.830Z,63.70
2023-03-08T09:12:23.792Z,63.64
2023-03-08T09:15:26.378Z,62.68
2023-03-08T09:18:28.838Z,63.09
2023-03-08T09:21:32.469Z,62.04
2023-03-08T09:24:34.646Z,62.54
2023-03-08T09:27:37.909Z,62.38
2023-03-08T09:30:40.031Z,62.68
2023-03-08T09:33:43.923Z,62.09
2023-03-08T09:36:46.042Z,60.93
2023-03-08T09:39:51.375Z,61.60
2023-03-08T09:42:59.291Z,61.47
2023-03-08T09:46:01.444Z,60.60
2023-03-08T09:49:05.682Z,60.53
2023-03-08T09:52:11.340Z,60.42
2023-03-08T09:55:43.430Z,59.86
2023-03-08T09:58:58.282Z,59.81
2023-03-08T10:02:24.708Z,59.49
2023-03-08T10:05:44.678Z,59.84
2023-03-08T10:08:49.935Z,59.65
2023-03-08T10:12:02.984Z,59.95
2023-03-08T10:15:15.595Z,59.80
2023-03-08T10:18:20.510Z,59.65
2023-03-08T10:21:26.077Z,66.11
2023-03-08T10:24:49.450Z,68.99
2023-03-08T10:27:54.613Z,71.01
2023-03-08T10:31:04.523Z,67.61
2023-03-08T10:34:12.793Z,66.57
2023-03-08T10:37:15.260Z,66.37
2023-03-08T10:40:22.002Z,65.95
2023-03-08T10:43:33.257Z,65.85
2023-03-08T10:46:47.374Z,66.89
2023-03-08T10:49:49.510Z,66.14
2023-03-08T10:52:52.269Z,66.15
2023-03-08T10:55:54.534Z,66.37
2023-03-08T10:58:58.197Z,66.00
2023-03-08T11:02:16.297Z,65.34
2023-03-08T11:05:21.806Z,64.63
2023-03-08T11:08:54.540Z,64.85
2023-03-08T11:11:58.109Z,63.28
2023-03-08T11:15:00.278Z,63.62
2023-03-08T11:18:39.893Z,63.57
2023-03-08T11:21:44.731Z,64.33
2023-03-08T11:24:46.753Z,62.74
2023-03-08T11:28:10.382Z,62.43
2023-03-08T11:31:27.544Z,62.36
2023-03-08T11:35:01.023Z,62.00
2023-03-08T11:38:20.207Z,61.61
2023-03-08T11:41:31.402Z,61.47
2023-03-08T11:44:49.420Z,61.86
2023-03-08T11:48:00.282Z,62.23
2023-03-08T11:51:09.791Z,62.57
2023-03-08T11:54:15.880Z,61.82
2023-03-08T11:57:19.899Z,61.76
2023-03-08T12:00:26.567Z,64.20
2023-03-08T12:03:37.613Z,62.42
2023-03-08T12:06:42.343Z,62.39
2023-03-08T12:10:01.567Z,61.83
2023-03-08T12:13:03.420Z,63.10
2023-03-08T12:16:25.544Z,63.57
2023-03-08T12:19:36.916Z,63.78
2023-03-08T12:22:58.142Z,64.17
2023-03-08T12:26:09.320Z,64.56
2023-03-08T12:29:46.419Z,63.52
2023-03-08T12:32:49.604Z,64.30
2023-03-08T12:36:05.321Z,63.46
2023-03-08T12:39:25.436Z,64.23
2023-03-08T12:42:40.065Z,63.64
2023-03-08T12:45:45.292Z,63.80
2023-03-08T12:48:50.854Z,63.90
2023-03-08T12:52:32.225Z,62.97
2023-03-08T12:55:34.456Z,63.45
2023-03-08T12:58:57.219Z,62.05
2023-03-08T13:02:00.887Z,63.23
2023-03-08T13:05:31.158Z,61.42
2023-03-08T13:08:44.572Z,61.84
2023-03-08T13:11:52.950Z,62.39
2023-03-08T13:15:02.460Z,62.50
2023-03-08T13:18:08.980Z,61.31
2023-03-08T13:21:31.303Z,62.39
2023-03-08T13:24:39.233Z,61.57
2023-03-08T13:28:13.568Z,62.09
2023-03-08T13:31:30.415Z,62.57
2023-03-08T13:34:35.688Z,61.95
2023-03-08T13:37:38.505Z,61.99
2023-03-08T13:40:51.497Z,62.66
2023-03-08T13:44:01.441Z,67.38
2023-03-08T13:47:30.898Z,66.51
2023-03-08T13:50:35.320Z,66.37
2023-03-08T13:53:38.360Z,65.58
2023-03-08T13:56:40.786Z,66.38
2023-03-08T13:59:49.663Z,67.24
2023-03-08T14:02:53.110Z,67.52
2023-03-08T14:05:55.295Z,68.49
2023-03-08T14:09:03.810Z,67.63
2023-03-08T14:12:06.808Z,66.21
2023-03-08T14:15:18.849Z,67.01
2023-03-08T14:18:30.846Z,66.61
2023-03-08T14:21:32.965Z,65.07
2023-03-08T14:24:36.463Z,66.31
2023-03-08T14:27:41.741Z,65.72
2023-03-08T14:30:49.099Z,65.21
2023-03-08T14:34:02.227Z,65.17
2023-03-08T14:45:50.057Z,64.10
2023-03-08T14:49:00.495Z,71.37
2023-03-08T14:52:02.998Z,69.85
2023-03-08T14:55:26.869Z,70.50
2023-03-08T14:58:31.318Z,70.46
2023-03-08T15:01:38.057Z,70.48
2023-03-08T15:04:43.821Z,71.17
2023-03-08T15:07:47.574Z,71.00
2023-03-08T15:10:50.348Z,70.55
2023-03-08T15:13:52.489Z,69.86
2023-03-08T15:16:55.462Z,69.66
2023-03-08T15:19:57.467Z,68.82
2023-03-08T15:23:02.702Z,67.66
2023-03-08T15:26:06.614Z,67.10
2023-03-08T15:29:20.380Z,66.91
2023-03-08T15:32:22.403Z,66.82
2023-03-08T15:35:25.333Z,67.71
2023-03-08T15:38:27.396Z,66.50
2023-03-08T15:41:29.582Z,64.62
2023-03-08T15:44:32.096Z,65.37
2023-03-08T15:47:34.066Z,65.38
2023-03-08T15:50:36.615Z,64.99
2023-03-08T15:53:38.621Z,64.49
2023-03-08T15:56:40.791Z,63.12
2023-03-08T15:59:43.487Z,63.43
2023-03-08T16:02:45.741Z,62.92
2023-03-08T16:05:47.791Z,61.90
2023-03-08T16:08:50.301Z,59.87
2023-03-08T16:11:52.292Z,55.32
2023-03-08T16:14:55.184Z,51.08
2023-03-08T16:17:57.242Z,48.21
2023-03-08T16:20:59.789Z,44.48
2023-03-08T16:24:02.699Z,43.30
2023-03-08T16:27:05.562Z,44.50
2023-03-08T16:30:08.331Z,43.53
2023-03-08T16:33:10.536Z,44.64
2023-03-08T16:36:12.963Z,44.03
2023-03-08T16:39:15.019Z,45.58
2023-03-08T16:42:18.898Z,45.62
2023-03-08T16:45:21.031Z,46.93
2023-03-08T16:48:23.478Z,46.78
2023-03-08T16:51:27.787Z,47.19
2023-03-08T16:54:31.083Z,49.38
2023-03-08T16:57:33.240Z,50.11
2023-03-08T17:00:35.215Z,50.74
2023-03-08T17:03:38.534Z,51.59
2023-03-08T17:06:44.557Z,52.09
2023-03-08T17:09:47.037Z,52.56
2023-03-08T17:12:49.080Z,52.81
2023-03-08T17:15:51.242Z,53.18
2023-03-08T17:18:54.282Z,53.55
2023-03-08T17:21:56.450Z,53.34
2023-03-08T17:24:58.532Z,54.17
2023-03-08T17:28:00.607Z,54.65
2023-03-08T17:31:06.890Z,55.11
2023-03-08T17:34:09.285Z,55.05
2023-03-08T17:37:11.526Z,55.21
2023-03-08T17:40:14.200Z,54.95
2023-03-08T17:43:16.297Z,54.84
2023-03-08T17:46:22.118Z,54.74
2023-03-08T17:49:25.231Z,55.39
2023-03-08T17:52:27.346Z,55.29
2023-03-08T17:55:29.379Z,55.37
2023-03-08T17:58:31.385Z,54.79
2023-03-08T18:01:33.797Z,54.61
2023-03-08T18:04:36.093Z,55.86
2023-03-08T18:07:41.527Z,55.98
2023-03-08T18:10:44.022Z,55.88
2023-03-08T18:13:46.767Z,56.48
2023-03-08T18:16:48.738Z,56.78
2023-03-08T18:19:50.901Z,56.38
2023-03-08T18:22:53.166Z,56.63
2023-03-08T18:25:55.241Z,56.48
2023-03-08T18:28:57.202Z,56.46
2023-03-08T18:31:59.500Z,56.73
2023-03-08T18:35:01.622Z,56.30
2023-03-08T18:38:04.420Z,56.42
2023-03-08T18:41:17.656Z,56.76
2023-03-08T18:44:19.779Z,56.67
2023-03-08T18:47:21.926Z,57.17
2023-03-08T18:50:25.280Z,56.85
2023-03-08T18:53:27.424Z,57.68
2023-03-08T18:56:30.119Z,56.97
2023-03-08T18:59:33.454Z,57.65
2023-03-08T19:02:35.777Z,58.33
2023-03-08T19:05:38.063Z,57.61
2023-03-08T19:08:40.524Z,59.12
2023-03-08T19:11:43.262Z,59.13
2023-03-08T19:14:48.331Z,59.34
2023-03-08T19:17:53.965Z,58.93
2023-03-08T19:20:56.101Z,59.60
2023-03-08T19:23:58.504Z,60.00
2023-03-08T19:27:02.227Z,59.54
2023-03-08T19:30:04.540Z,60.63
2023-03-08T19:33:06.582Z,60.50
2023-03-08T19:36:09.589Z,60.14
2023-03-08T19:39:20.002Z,61.01
2023-03-08T19:42:22.425Z,60.72
2023-03-08T19:45:25.420Z,61.18
2023-03-08T19:48:29.457Z,61.46
2023-03-08T19:51:32.237Z,59.92
2023-03-08T19:54:34.940Z,60.91
2023-03-08T19:57:37.617Z,60.59
2023-03-08T20:00:43.152Z,66.20
2023-03-08T20:03:46.331Z,67.88
2023-03-08T20:06:50.235Z,69.24
2023-03-08T20:09:58.841Z,70.71
2023-03-08T20:13:04.445Z,76.54
2023-03-08T20:16:07.113Z,91.27
2023-03-08T20:19:09.009Z,91.83
2023-03-08T20:22:11.046Z,81.64
2023-03-08T20:25:13.058Z,70.66
2023-03-08T20:28:15.018Z,64.88
2023-03-08T20:31:17.635Z,58.32
2023-03-08T20:34:19.624Z,56.15
2023-03-08T20:37:22.154Z,57.23
2023-03-08T20:40:24.198Z,48.28
2023-03-08T20:43:26.341Z,52.16
2023-03-08T20:46:33.458Z,56.16
2023-03-08T20:49:35.824Z,59.36
2023-03-08T20:52:37.910Z,60.28
2023-03-08T20:55:41.099Z,61.20
2023-03-08T20:58:43.319Z,61.48
2023-03-08T21:01:45.841Z,62.48
2023-03-08T21:04:47.840Z,63.33
2023-03-08T21:07:52.590Z,63.16
2023-03-08T21:10:58.709Z,63.60
2023-03-08T21:14:00.713Z,63.09
2023-03-08T21:17:02.681Z,63.42
2023-03-08T21:20:05.840Z,63.21
2023-03-08T21:23:07.782Z,63.13
2023-03-08T21:26:09.851Z,63.69
2023-03-08T21:29:15.524Z,63.30
2023-03-08T21:32:18.031Z,62.95
2023-03-08T21:35:20.140Z,63.54
2023-03-08T21:38:24.417Z,64.31
2023-03-08T21:41:30.292Z,63.90
2023-03-08T21:44:32.444Z,64.18
2023-03-08T21:47:35.834Z,63.62
2023-03-08T21:50:39.135Z,64.52
2023-03-08T21:53:42.097Z,64.75
2023-03-08T21:56:44.375Z,64.94
2023-03-08T21:59:46.463Z,65.74
2023-03-08T22:02:54.543Z,65.64
2023-03-08T22:05:58.334Z,65.39
2023-03-08T22:09:00.405Z,65.70
2023-03-08T22:12:02.468Z,64.39
2023-03-08T22:15:06.107Z,65.15
2023-03-08T22:18:08.126Z,65.44
2023-03-08T22:21:10.665Z,65.21
2023-03-08T22:24:12.585Z,65.11
2023-03-08T22:27:14.924Z,65.34
2023-03-08T22:30:17.135Z,65.43
2023-03-08T22:33:19.180Z,65.52
2023-03-08T22:36:22.385Z,66.02
2023-03-08T22:39:24.405Z,65.79
2023-03-08T22:42:26.561Z,66.37
2023-03-08T22:45:29.818Z,65.84
2023-03-08T22:48:31.753Z,66.56
2023-03-08T22:51:36.491Z,65.56
2023-03-08T22:54:38.666Z,66.16
2023-03-08T22:57:40.768Z,65.26
2023-03-08T23:00:42.776Z,65.44
2023-03-08T23:03:46.265Z,65.47
2023-03-08T23:06:48.403Z,65.41
2023-03-08T23:09:50.508Z,65.33
2023-03-08T23:12:52.663Z,65.61
2023-03-08T23:15:54.597Z,65.54
2023-03-08T23:18:56.630Z,64.94
2023-03-08T23:21:58.732Z,65.94
2023-03-08T23:25:00.742Z,65.25
2023-03-08T23:28:02.779Z,65.00
2023-03-08T23:31:16.782Z,65.24
2023-03-08T23:34:18.784Z,65.58
2023-03-08T23:37:21.177Z,65.47
2023-03-08T23:40:23.192Z,65.09
2023-03-08T23:43:26.164Z,64.74
2023-03-08T23:46:29.251Z,64.43
2023-03-08T23:49:31.325Z,64.24
2023-03-08T23:52:33.398Z,62.97
2023-03-08T23:55:40.228Z,63.17
2023-03-08T23:58:42.322Z,63.15
